sensor_id;sensor_type;location;lat;lon;timestamp;temperature;humidity
6375;DHT22;35400;45.472;-122.822;2023-12-04T00:00:32;14.20;99.90
6375;DHT22;35400;45.472;-122.822;2023-12-04T00:02:59;14.20;99.90
6375;DHT22;35400;45.472;-122.822;2023-12-04T00:05:26;14.20;99.90
6375;DHT22;35400;45.472;-122.822;2023-12-04T00:07:52;14.20;99.90
6375;DHT22;35400;45.472;-122.822;2023-12-04T00:10:20;14.20;99.90
6375;DHT22;35400;45.472;-122.822;2023-12-04T00:12:47;14.10;99.90
6375;DHT22;35400;45.472;-122.822;2023-12-04T00:15:14;14.10;99.90
6375;DHT22;35400;45.472;-122.822;2023-12-04T00:17:42;14.10;99.90
6375;DHT22;35400;45.472;-122.822;2023-12-04T00:20:09;14.10;99.90
6375;DHT22;35400;45.472;-122.822;2023-12-04T00:22:37;14.00;99.90
6375;DHT22;35400;45.472;-122.822;2023-12-04T00:25:05;14.00;99.90
6375;DHT22;35400;45.472;-122.822;2023-12-04T00:27:32;14.00;99.90
6375;DHT22;35400;45.472;-122.822;2023-12-04T00:29:59;14.00;99.90
6375;DHT22;35400;45.472;-122.822;2023-12-04T00:32:26;14.00;99.90
6375;DHT22;35400;45.472;-122.822;2023-12-04T00:34:53;13.90;99.90
6375;DHT22;35400;45.472;-122.822;2023-12-04T00:37:20;13.90;99.90
6375;DHT22;35400;45.472;-122.822;2023-12-04T00:39:47;13.90;99.90
6375;DHT22;35400;45.472;-122.822;2023-12-04T00:42:14;13.90;99.90
6375;DHT22;35400;45.472;-122.822;2023-12-04T00:44:40;13.80;99.90
6375;DHT22;35400;45.472;-122.822;2023-12-04T00:47:07;13.80;99.90
6375;DHT22;35400;45.472;-122.822;2023-12-04T00:49:36;13.80;99.90
6375;DHT22;35400;45.472;-122.822;2023-12-04T00:52:02;13.80;99.90
6375;DHT22;35400;45.472;-122.822;2023-12-04T00:54:29;13.70;99.90
6375;DHT22;35400;45.472;-122.822;2023-12-04T00:56:56;13.70;99.90
6375;DHT22;35400;45.472;-122.822;2023-12-04T00:59:23;13.70;99.90
6375;DHT22;35400;45.472;-122.822;2023-12-04T01:01:50;13.70;99.90
6375;DHT22;35400;45.472;-122.822;2023-12-04T01:04:17;13.70;99.90
6375;DHT22;35400;45.472;-122.822;2023-12-04T01:06:44;13.60;99.90
6375;DHT22;35400;45.472;-122.822;2023-12-04T01:09:10;13.60;99.90
6375;DHT22;35400;45.472;-122.822;2023-12-04T01:11:37;13.60;99.90
6375;DHT22;35400;45.472;-122.822;2023-12-04T01:14:05;13.60;99.90
6375;DHT22;35400;45.472;-122.822;2023-12-04T01:16:32;13.60;99.90
6375;DHT22;35400;45.472;-122.822;2023-12-04T01:18:59;13.60;99.90
6375;DHT22;35400;45.472;-122.822;2023-12-04T01:21:25;13.50;99.90
6375;DHT22;35400;45.472;-122.822;2023-12-04T01:23:52;13.50;99.90
6375;DHT22;35400;45.472;-122.822;2023-12-04T01:26:19;13.50;99.90
6375;DHT22;35400;45.472;-122.822;2023-12-04T01:28:47;13.50;99.90
6375;DHT22;35400;45.472;-122.822;2023-12-04T01:31:14;13.50;99.90
6375;DHT22;35400;45.472;-122.822;2023-12-04T01:33:41;13.40;99.90
6375;DHT22;35400;45.472;-122.822;2023-12-04T01:36:08;13.50;99.90
6375;DHT22;35400;45.472;-122.822;2023-12-04T01:38:36;13.40;99.90
6375;DHT22;35400;45.472;-122.822;2023-12-04T01:41:03;13.40;99.90
6375;DHT22;35400;45.472;-122.822;2023-12-04T01:43:30;13.40;99.90
6375;DHT22;35400;45.472;-122.822;2023-12-04T01:46:00;13.40;99.90
6375;DHT22;35400;45.472;-122.822;2023-12-04T01:48:29;13.40;99.90
6375;DHT22;35400;45.472;-122.822;2023-12-04T01:50:57;13.40;99.90
6375;DHT22;35400;45.472;-122.822;2023-12-04T01:53:24;13.40;99.90
6375;DHT22;35400;45.472;-122.822;2023-12-04T01:55:51;13.40;99.90
6375;DHT22;35400;45.472;-122.822;2023-12-04T01:58:18;13.30;99.90
6375;DHT22;35400;45.472;-122.822;2023-12-04T02:00:47;13.40;99.90
6375;DHT22;35400;45.472;-122.822;2023-12-04T02:03:14;13.40;99.90
6375;DHT22;35400;45.472;-122.822;2023-12-04T02:05:43;13.30;99.90
6375;DHT22;35400;45.472;-122.822;2023-12-04T02:08:11;13.40;99.90
6375;DHT22;35400;45.472;-122.822;2023-12-04T02:10:40;13.30;99.90
6375;DHT22;35400;45.472;-122.822;2023-12-04T02:13:07;13.30;99.90
6375;DHT22;35400;45.472;-122.822;2023-12-04T02:15:34;13.30;99.90
6375;DHT22;35400;45.472;-122.822;2023-12-04T02:18:03;13.30;99.90
6375;DHT22;35400;45.472;-122.822;2023-12-04T02:20:34;13.30;99.90
6375;DHT22;35400;45.472;-122.822;2023-12-04T02:23:01;13.30;99.90
6375;DHT22;35400;45.472;-122.822;2023-12-04T02:25:30;13.30;99.90
6375;DHT22;35400;45.472;-122.822;2023-12-04T02:28:01;13.30;99.90
6375;DHT22;35400;45.472;-122.822;2023-12-04T02:30:30;13.30;99.90
6375;DHT22;35400;45.472;-122.822;2023-12-04T02:32:59;13.30;99.90
6375;DHT22;35400;45.472;-122.822;2023-12-04T02:35:29;13.20;99.90
6375;DHT22;35400;45.472;-122.822;2023-12-04T02:37:59;13.20;99.90
6375;DHT22;35400;45.472;-122.822;2023-12-04T02:40:27;13.20;99.90
6375;DHT22;35400;45.472;-122.822;2023-12-04T02:42:54;13.20;99.90
6375;DHT22;35400;45.472;-122.822;2023-12-04T02:45:21;13.20;99.90
6375;DHT22;35400;45.472;-122.822;2023-12-04T02:47:48;13.10;99.90
6375;DHT22;35400;45.472;-122.822;2023-12-04T02:50:14;13.10;99.90
6375;DHT22;35400;45.472;-122.822;2023-12-04T02:52:41;13.10;99.90
6375;DHT22;35400;45.472;-122.822;2023-12-04T02:55:08;13.10;99.90
6375;DHT22;35400;45.472;-122.822;2023-12-04T02:57:35;13.10;99.90
6375;DHT22;35400;45.472;-122.822;2023-12-04T03:00:02;13.00;99.90
6375;DHT22;35400;45.472;-122.822;2023-12-04T03:02:30;13.00;99.90
6375;DHT22;35400;45.472;-122.822;2023-12-04T03:04:57;13.00;99.90
6375;DHT22;35400;45.472;-122.822;2023-12-04T03:07:24;13.10;99.90
6375;DHT22;35400;45.472;-122.822;2023-12-04T03:09:52;13.10;99.90
6375;DHT22;35400;45.472;-122.822;2023-12-04T03:12:19;13.00;99.90
6375;DHT22;35400;45.472;-122.822;2023-12-04T03:14:46;13.00;99.90
6375;DHT22;35400;45.472;-122.822;2023-12-04T03:17:13;13.00;99.90
6375;DHT22;35400;45.472;-122.822;2023-12-04T03:19:41;13.00;99.90
6375;DHT22;35400;45.472;-122.822;2023-12-04T03:22:08;13.00;99.90
6375;DHT22;35400;45.472;-122.822;2023-12-04T03:24:34;13.00;99.90
6375;DHT22;35400;45.472;-122.822;2023-12-04T03:27:01;13.00;99.90
6375;DHT22;35400;45.472;-122.822;2023-12-04T03:29:28;13.00;99.90
6375;DHT22;35400;45.472;-122.822;2023-12-04T03:31:55;13.00;99.90
6375;DHT22;35400;45.472;-122.822;2023-12-04T03:34:22;13.00;99.90
6375;DHT22;35400;45.472;-122.822;2023-12-04T03:36:49;13.00;99.90
6375;DHT22;35400;45.472;-122.822;2023-12-04T03:39:15;13.00;99.90
6375;DHT22;35400;45.472;-122.822;2023-12-04T03:41:42;13.00;99.90
6375;DHT22;35400;45.472;-122.822;2023-12-04T03:44:09;13.00;99.90
6375;DHT22;35400;45.472;-122.822;2023-12-04T03:46:36;13.00;99.90
6375;DHT22;35400;45.472;-122.822;2023-12-04T03:49:03;13.00;99.90
6375;DHT22;35400;45.472;-122.822;2023-12-04T03:51:30;13.00;99.90
6375;DHT22;35400;45.472;-122.822;2023-12-04T03:53:57;13.00;99.90
6375;DHT22;35400;45.472;-122.822;2023-12-04T03:56:24;12.90;99.90
6375;DHT22;35400;45.472;-122.822;2023-12-04T03:58:51;13.00;99.90
6375;DHT22;35400;45.472;-122.822;2023-12-04T04:01:17;12.90;99.90
6375;DHT22;35400;45.472;-122.822;2023-12-04T04:03:44;12.90;99.90
6375;DHT22;35400;45.472;-122.822;2023-12-04T04:06:12;12.90;99.90
6375;DHT22;35400;45.472;-122.822;2023-12-04T04:08:39;12.90;99.90
6375;DHT22;35400;45.472;-122.822;2023-12-04T04:11:06;12.90;99.90
6375;DHT22;35400;45.472;-122.822;2023-12-04T04:13:33;12.90;99.90
6375;DHT22;35400;45.472;-122.822;2023-12-04T04:16:00;12.90;99.90
6375;DHT22;35400;45.472;-122.822;2023-12-04T04:18:27;12.90;99.90
6375;DHT22;35400;45.472;-122.822;2023-12-04T04:20:54;12.90;99.90
6375;DHT22;35400;45.472;-122.822;2023-12-04T04:23:20;12.90;99.90
6375;DHT22;35400;45.472;-122.822;2023-12-04T04:25:47;12.90;99.90
6375;DHT22;35400;45.472;-122.822;2023-12-04T04:28:14;12.90;99.90
6375;DHT22;35400;45.472;-122.822;2023-12-04T04:30:41;12.90;99.90
6375;DHT22;35400;45.472;-122.822;2023-12-04T04:33:08;12.90;99.90
6375;DHT22;35400;45.472;-122.822;2023-12-04T04:35:35;12.90;99.90
6375;DHT22;35400;45.472;-122.822;2023-12-04T04:38:03;12.90;99.90
6375;DHT22;35400;45.472;-122.822;2023-12-04T04:40:30;12.90;99.90
6375;DHT22;35400;45.472;-122.822;2023-12-04T04:42:57;12.90;99.90
6375;DHT22;35400;45.472;-122.822;2023-12-04T04:45:24;12.90;99.90
6375;DHT22;35400;45.472;-122.822;2023-12-04T04:47:51;12.90;99.90
6375;DHT22;35400;45.472;-122.822;2023-12-04T04:50:18;12.90;99.90
6375;DHT22;35400;45.472;-122.822;2023-12-04T04:52:44;12.90;99.90
6375;DHT22;35400;45.472;-122.822;2023-12-04T04:55:11;12.90;99.90
6375;DHT22;35400;45.472;-122.822;2023-12-04T04:57:38;12.90;99.90
6375;DHT22;35400;45.472;-122.822;2023-12-04T05:00:06;12.90;99.90
6375;DHT22;35400;45.472;-122.822;2023-12-04T05:02:33;12.90;99.90
6375;DHT22;35400;45.472;-122.822;2023-12-04T05:05:03;12.90;99.90
6375;DHT22;35400;45.472;-122.822;2023-12-04T05:07:30;12.90;99.90
6375;DHT22;35400;45.472;-122.822;2023-12-04T05:09:57;12.90;99.90
6375;DHT22;35400;45.472;-122.822;2023-12-04T05:12:24;12.90;99.90
6375;DHT22;35400;45.472;-122.822;2023-12-04T05:14:51;12.90;99.90
6375;DHT22;35400;45.472;-122.822;2023-12-04T05:17:18;13.00;99.90
6375;DHT22;35400;45.472;-122.822;2023-12-04T05:19:45;12.90;99.90
6375;DHT22;35400;45.472;-122.822;2023-12-04T05:22:12;12.90;99.90
6375;DHT22;35400;45.472;-122.822;2023-12-04T05:24:39;12.90;99.90
6375;DHT22;35400;45.472;-122.822;2023-12-04T05:27:06;12.90;99.90
6375;DHT22;35400;45.472;-122.822;2023-12-04T05:29:33;13.00;99.90
6375;DHT22;35400;45.472;-122.822;2023-12-04T05:31:59;13.00;99.90
6375;DHT22;35400;45.472;-122.822;2023-12-04T05:34:26;13.00;99.90
6375;DHT22;35400;45.472;-122.822;2023-12-04T05:36:53;12.90;99.90
6375;DHT22;35400;45.472;-122.822;2023-12-04T05:39:20;12.90;99.90
6375;DHT22;35400;45.472;-122.822;2023-12-04T05:41:47;13.00;99.90
6375;DHT22;35400;45.472;-122.822;2023-12-04T05:44:14;12.90;99.90
6375;DHT22;35400;45.472;-122.822;2023-12-04T05:46:41;13.00;99.90
6375;DHT22;35400;45.472;-122.822;2023-12-04T05:49:08;13.00;99.90
6375;DHT22;35400;45.472;-122.822;2023-12-04T05:51:34;13.00;99.90
6375;DHT22;35400;45.472;-122.822;2023-12-04T05:54:01;13.00;99.90
6375;DHT22;35400;45.472;-122.822;2023-12-04T05:56:28;13.00;99.90
6375;DHT22;35400;45.472;-122.822;2023-12-04T05:58:56;13.00;99.90
6375;DHT22;35400;45.472;-122.822;2023-12-04T06:01:23;13.00;99.90
6375;DHT22;35400;45.472;-122.822;2023-12-04T06:03:50;13.00;99.90
6375;DHT22;35400;45.472;-122.822;2023-12-04T06:06:16;13.00;99.90
6375;DHT22;35400;45.472;-122.822;2023-12-04T06:08:43;13.10;99.90
6375;DHT22;35400;45.472;-122.822;2023-12-04T06:11:10;13.10;99.90
6375;DHT22;35400;45.472;-122.822;2023-12-04T06:13:37;13.10;99.90
6375;DHT22;35400;45.472;-122.822;2023-12-04T06:16:04;13.10;99.90
6375;DHT22;35400;45.472;-122.822;2023-12-04T06:18:31;13.10;99.90
6375;DHT22;35400;45.472;-122.822;2023-12-04T06:20:58;13.10;99.90
6375;DHT22;35400;45.472;-122.822;2023-12-04T06:23:25;13.10;99.90
6375;DHT22;35400;45.472;-122.822;2023-12-04T06:25:52;13.10;99.90
6375;DHT22;35400;45.472;-122.822;2023-12-04T06:28:19;13.00;99.90
6375;DHT22;35400;45.472;-122.822;2023-12-04T06:30:47;13.00;99.90
6375;DHT22;35400;45.472;-122.822;2023-12-04T06:33:14;13.00;99.90
6375;DHT22;35400;45.472;-122.822;2023-12-04T06:35:41;13.00;99.90
6375;DHT22;35400;45.472;-122.822;2023-12-04T06:38:08;13.00;99.90
6375;DHT22;35400;45.472;-122.822;2023-12-04T06:40:37;13.00;99.90
6375;DHT22;35400;45.472;-122.822;2023-12-04T06:43:06;12.90;99.90
6375;DHT22;35400;45.472;-122.822;2023-12-04T06:45:34;12.90;99.90
6375;DHT22;35400;45.472;-122.822;2023-12-04T06:48:01;12.90;99.90
6375;DHT22;35400;45.472;-122.822;2023-12-04T06:50:28;12.90;99.90
6375;DHT22;35400;45.472;-122.822;2023-12-04T06:52:55;12.90;99.90
6375;DHT22;35400;45.472;-122.822;2023-12-04T06:55:22;12.90;99.90
6375;DHT22;35400;45.472;-122.822;2023-12-04T06:57:49;12.90;99.90
6375;DHT22;35400;45.472;-122.822;2023-12-04T07:00:16;12.90;99.90
6375;DHT22;35400;45.472;-122.822;2023-12-04T07:02:43;12.90;99.90
6375;DHT22;35400;45.472;-122.822;2023-12-04T07:05:10;12.90;99.90
6375;DHT22;35400;45.472;-122.822;2023-12-04T07:07:37;12.90;99.90
6375;DHT22;35400;45.472;-122.822;2023-12-04T07:10:04;12.90;99.90
6375;DHT22;35400;45.472;-122.822;2023-12-04T07:12:31;12.90;99.90
6375;DHT22;35400;45.472;-122.822;2023-12-04T07:14:58;12.90;99.90
6375;DHT22;35400;45.472;-122.822;2023-12-04T07:17:25;12.90;99.90
6375;DHT22;35400;45.472;-122.822;2023-12-04T07:19:52;12.90;99.90
6375;DHT22;35400;45.472;-122.822;2023-12-04T07:22:19;12.90;99.90
6375;DHT22;35400;45.472;-122.822;2023-12-04T07:24:46;12.90;99.90
6375;DHT22;35400;45.472;-122.822;2023-12-04T07:27:13;12.80;99.90
6375;DHT22;35400;45.472;-122.822;2023-12-04T07:29:40;12.90;99.90
6375;DHT22;35400;45.472;-122.822;2023-12-04T07:32:07;12.80;99.90
6375;DHT22;35400;45.472;-122.822;2023-12-04T07:34:34;12.80;99.90
6375;DHT22;35400;45.472;-122.822;2023-12-04T07:37:00;12.80;99.90
6375;DHT22;35400;45.472;-122.822;2023-12-04T07:39:27;12.80;99.90
6375;DHT22;35400;45.472;-122.822;2023-12-04T07:41:54;12.80;99.90
6375;DHT22;35400;45.472;-122.822;2023-12-04T07:44:21;12.80;99.90
6375;DHT22;35400;45.472;-122.822;2023-12-04T07:46:48;12.80;99.90
6375;DHT22;35400;45.472;-122.822;2023-12-04T07:49:14;12.70;99.90
6375;DHT22;35400;45.472;-122.822;2023-12-04T07:51:41;12.80;99.90
6375;DHT22;35400;45.472;-122.822;2023-12-04T07:54:08;12.70;99.90
6375;DHT22;35400;45.472;-122.822;2023-12-04T07:56:35;12.70;99.90
6375;DHT22;35400;45.472;-122.822;2023-12-04T07:59:02;12.70;99.90
6375;DHT22;35400;45.472;-122.822;2023-12-04T08:01:29;12.70;99.90
6375;DHT22;35400;45.472;-122.822;2023-12-04T08:03:56;12.70;99.90
6375;DHT22;35400;45.472;-122.822;2023-12-04T08:06:23;12.70;99.90
6375;DHT22;35400;45.472;-122.822;2023-12-04T08:08:50;12.70;99.90
6375;DHT22;35400;45.472;-122.822;2023-12-04T08:11:17;12.70;99.90
6375;DHT22;35400;45.472;-122.822;2023-12-04T08:13:44;12.70;99.90
6375;DHT22;35400;45.472;-122.822;2023-12-04T08:16:14;12.70;99.90
6375;DHT22;35400;45.472;-122.822;2023-12-04T08:18:41;12.70;99.90
6375;DHT22;35400;45.472;-122.822;2023-12-04T08:21:10;12.70;99.90
6375;DHT22;35400;45.472;-122.822;2023-12-04T08:23:38;12.70;99.90
6375;DHT22;35400;45.472;-122.822;2023-12-04T08:26:05;12.70;99.90
6375;DHT22;35400;45.472;-122.822;2023-12-04T08:28:33;12.70;99.90
6375;DHT22;35400;45.472;-122.822;2023-12-04T08:31:02;12.70;99.90
6375;DHT22;35400;45.472;-122.822;2023-12-04T08:33:30;12.70;99.90
6375;DHT22;35400;45.472;-122.822;2023-12-04T08:35:58;12.70;99.90
6375;DHT22;35400;45.472;-122.822;2023-12-04T08:38:25;12.70;99.90
6375;DHT22;35400;45.472;-122.822;2023-12-04T08:40:53;12.60;99.90
6375;DHT22;35400;45.472;-122.822;2023-12-04T08:43:20;12.60;99.90
6375;DHT22;35400;45.472;-122.822;2023-12-04T08:45:47;12.60;99.90
6375;DHT22;35400;45.472;-122.822;2023-12-04T08:48:14;12.60;99.90
6375;DHT22;35400;45.472;-122.822;2023-12-04T08:50:41;12.60;99.90
6375;DHT22;35400;45.472;-122.822;2023-12-04T08:53:08;12.60;99.90
6375;DHT22;35400;45.472;-122.822;2023-12-04T08:55:35;12.60;99.90
6375;DHT22;35400;45.472;-122.822;2023-12-04T08:58:03;12.60;99.90
6375;DHT22;35400;45.472;-122.822;2023-12-04T09:00:30;12.60;99.90
6375;DHT22;35400;45.472;-122.822;2023-12-04T09:02:57;12.60;99.90
6375;DHT22;35400;45.472;-122.822;2023-12-04T09:05:24;12.60;99.90
6375;DHT22;35400;45.472;-122.822;2023-12-04T09:07:50;12.60;99.90
6375;DHT22;35400;45.472;-122.822;2023-12-04T09:10:17;12.60;99.90
6375;DHT22;35400;45.472;-122.822;2023-12-04T09:12:44;12.60;99.90
6375;DHT22;35400;45.472;-122.822;2023-12-04T09:15:12;12.50;99.90
6375;DHT22;35400;45.472;-122.822;2023-12-04T09:17:38;12.50;99.90
6375;DHT22;35400;45.472;-122.822;2023-12-04T09:20:06;12.50;99.90
6375;DHT22;35400;45.472;-122.822;2023-12-04T09:22:33;12.50;99.90
6375;DHT22;35400;45.472;-122.822;2023-12-04T09:25:01;12.50;99.90
6375;DHT22;35400;45.472;-122.822;2023-12-04T09:27:28;12.50;99.90
6375;DHT22;35400;45.472;-122.822;2023-12-04T09:29:55;12.50;99.90
6375;DHT22;35400;45.472;-122.822;2023-12-04T09:32:21;12.50;99.90
6375;DHT22;35400;45.472;-122.822;2023-12-04T09:34:49;12.50;99.90
6375;DHT22;35400;45.472;-122.822;2023-12-04T09:37:15;12.50;99.90
6375;DHT22;35400;45.472;-122.822;2023-12-04T09:39:42;12.50;99.90
6375;DHT22;35400;45.472;-122.822;2023-12-04T09:42:09;12.50;99.90
6375;DHT22;35400;45.472;-122.822;2023-12-04T09:44:37;12.50;99.90
6375;DHT22;35400;45.472;-122.822;2023-12-04T09:47:05;12.50;99.90
6375;DHT22;35400;45.472;-122.822;2023-12-04T09:49:34;12.50;99.90
6375;DHT22;35400;45.472;-122.822;2023-12-04T09:52:01;12.50;99.90
6375;DHT22;35400;45.472;-122.822;2023-12-04T09:54:31;12.50;99.90
6375;DHT22;35400;45.472;-122.822;2023-12-04T09:56:59;12.50;99.90
6375;DHT22;35400;45.472;-122.822;2023-12-04T09:59:27;12.50;99.90
6375;DHT22;35400;45.472;-122.822;2023-12-04T10:01:57;12.50;99.90
6375;DHT22;35400;45.472;-122.822;2023-12-04T10:04:25;12.50;99.90
6375;DHT22;35400;45.472;-122.822;2023-12-04T10:06:52;12.60;99.90
6375;DHT22;35400;45.472;-122.822;2023-12-04T10:09:19;12.60;99.90
6375;DHT22;35400;45.472;-122.822;2023-12-04T10:11:50;12.60;99.90
6375;DHT22;35400;45.472;-122.822;2023-12-04T10:14:19;12.60;99.90
6375;DHT22;35400;45.472;-122.822;2023-12-04T10:16:47;12.60;99.90
6375;DHT22;35400;45.472;-122.822;2023-12-04T10:19:23;12.70;99.90
6375;DHT22;35400;45.472;-122.822;2023-12-04T10:21:56;12.60;99.90
6375;DHT22;35400;45.472;-122.822;2023-12-04T10:24:33;12.70;99.90
6375;DHT22;35400;45.472;-122.822;2023-12-04T10:27:21;12.60;99.90
6375;DHT22;35400;45.472;-122.822;2023-12-04T10:29:52;12.60;99.90
6375;DHT22;35400;45.472;-122.822;2023-12-04T10:32:20;12.60;99.90
6375;DHT22;35400;45.472;-122.822;2023-12-04T10:34:50;12.70;99.90
6375;DHT22;35400;45.472;-122.822;2023-12-04T10:37:17;12.70;99.90
6375;DHT22;35400;45.472;-122.822;2023-12-04T10:39:48;12.70;99.90
6375;DHT22;35400;45.472;-122.822;2023-12-04T10:42:26;12.70;99.90
6375;DHT22;35400;45.472;-122.822;2023-12-04T10:44:57;12.60;99.90
6375;DHT22;35400;45.472;-122.822;2023-12-04T10:47:25;12.70;99.90
6375;DHT22;35400;45.472;-122.822;2023-12-04T10:49:52;12.60;99.90
6375;DHT22;35400;45.472;-122.822;2023-12-04T10:52:20;12.60;99.90
6375;DHT22;35400;45.472;-122.822;2023-12-04T10:54:51;12.60;99.90
6375;DHT22;35400;45.472;-122.822;2023-12-04T10:57:31;12.60;99.90
6375;DHT22;35400;45.472;-122.822;2023-12-04T11:00:04;12.60;99.90
6375;DHT22;35400;45.472;-122.822;2023-12-04T11:02:34;12.70;99.90
6375;DHT22;35400;45.472;-122.822;2023-12-04T11:05:14;12.60;99.90
6375;DHT22;35400;45.472;-122.822;2023-12-04T11:07:57;12.60;99.90
6375;DHT22;35400;45.472;-122.822;2023-12-04T11:10:27;12.60;99.90
6375;DHT22;35400;45.472;-122.822;2023-12-04T11:13:02;12.70;99.90
6375;DHT22;35400;45.472;-122.822;2023-12-04T11:15:32;12.70;99.90
6375;DHT22;35400;45.472;-122.822;2023-12-04T11:18:01;12.70;99.90
6375;DHT22;35400;45.472;-122.822;2023-12-04T11:20:32;12.70;99.90
6375;DHT22;35400;45.472;-122.822;2023-12-04T11:23:01;12.70;99.90
6375;DHT22;35400;45.472;-122.822;2023-12-04T11:25:29;12.70;99.90
6375;DHT22;35400;45.472;-122.822;2023-12-04T11:28:02;12.70;99.90
6375;DHT22;35400;45.472;-122.822;2023-12-04T11:30:30;12.70;99.90
6375;DHT22;35400;45.472;-122.822;2023-12-04T11:32:57;12.70;99.90
6375;DHT22;35400;45.472;-122.822;2023-12-04T11:35:26;12.80;99.90
6375;DHT22;35400;45.472;-122.822;2023-12-04T11:37:53;12.80;99.90
6375;DHT22;35400;45.472;-122.822;2023-12-04T11:40:20;12.80;99.90
6375;DHT22;35400;45.472;-122.822;2023-12-04T11:42:48;12.80;99.90
6375;DHT22;35400;45.472;-122.822;2023-12-04T11:45:23;12.80;99.90
6375;DHT22;35400;45.472;-122.822;2023-12-04T11:47:52;12.80;99.90
6375;DHT22;35400;45.472;-122.822;2023-12-04T11:50:21;12.80;99.90
6375;DHT22;35400;45.472;-122.822;2023-12-04T11:52:48;12.80;99.90
6375;DHT22;35400;45.472;-122.822;2023-12-04T11:55:21;12.80;99.90
6375;DHT22;35400;45.472;-122.822;2023-12-04T11:57:53;12.80;99.90
6375;DHT22;35400;45.472;-122.822;2023-12-04T12:00:22;12.90;99.90
6375;DHT22;35400;45.472;-122.822;2023-12-04T12:05:20;12.80;99.90
6375;DHT22;35400;45.472;-122.822;2023-12-04T12:07:47;12.80;99.90
6375;DHT22;35400;45.472;-122.822;2023-12-04T12:10:16;12.80;99.90
6375;DHT22;35400;45.472;-122.822;2023-12-04T12:12:43;12.80;99.90
6375;DHT22;35400;45.472;-122.822;2023-12-04T12:15:11;12.80;99.90
6375;DHT22;35400;45.472;-122.822;2023-12-04T12:17:39;12.80;99.90
6375;DHT22;35400;45.472;-122.822;2023-12-04T12:20:08;12.80;99.90
6375;DHT22;35400;45.472;-122.822;2023-12-04T12:22:36;12.80;99.90
6375;DHT22;35400;45.472;-122.822;2023-12-04T12:25:08;12.80;99.90
6375;DHT22;35400;45.472;-122.822;2023-12-04T12:27:35;12.80;99.90
6375;DHT22;35400;45.472;-122.822;2023-12-04T12:30:02;12.80;99.90
6375;DHT22;35400;45.472;-122.822;2023-12-04T12:32:34;12.90;99.90
6375;DHT22;35400;45.472;-122.822;2023-12-04T12:35:02;12.90;99.90
6375;DHT22;35400;45.472;-122.822;2023-12-04T12:37:34;12.90;99.90
6375;DHT22;35400;45.472;-122.822;2023-12-04T12:40:01;12.90;99.90
6375;DHT22;35400;45.472;-122.822;2023-12-04T12:42:31;12.90;99.90
6375;DHT22;35400;45.472;-122.822;2023-12-04T12:45:01;12.90;99.90
6375;DHT22;35400;45.472;-122.822;2023-12-04T12:47:30;12.90;99.90
6375;DHT22;35400;45.472;-122.822;2023-12-04T12:49:57;12.90;99.90
6375;DHT22;35400;45.472;-122.822;2023-12-04T12:52:25;12.90;99.90
6375;DHT22;35400;45.472;-122.822;2023-12-04T12:54:52;12.90;99.90
6375;DHT22;35400;45.472;-122.822;2023-12-04T12:57:20;12.90;99.90
6375;DHT22;35400;45.472;-122.822;2023-12-04T12:59:46;12.90;99.90
6375;DHT22;35400;45.472;-122.822;2023-12-04T13:02:14;13.00;99.90
6375;DHT22;35400;45.472;-122.822;2023-12-04T13:04:41;13.00;99.90
6375;DHT22;35400;45.472;-122.822;2023-12-04T13:07:09;13.00;99.90
6375;DHT22;35400;45.472;-122.822;2023-12-04T13:09:37;13.00;99.90
6375;DHT22;35400;45.472;-122.822;2023-12-04T13:12:07;13.00;99.90
6375;DHT22;35400;45.472;-122.822;2023-12-04T13:14:35;13.00;99.90
6375;DHT22;35400;45.472;-122.822;2023-12-04T13:17:03;13.00;99.90
6375;DHT22;35400;45.472;-122.822;2023-12-04T13:19:30;13.00;99.90
6375;DHT22;35400;45.472;-122.822;2023-12-04T13:22:01;13.00;99.90
6375;DHT22;35400;45.472;-122.822;2023-12-04T13:24:28;13.00;99.90
6375;DHT22;35400;45.472;-122.822;2023-12-04T13:26:55;13.00;99.90
6375;DHT22;35400;45.472;-122.822;2023-12-04T13:29:22;13.00;99.90
6375;DHT22;35400;45.472;-122.822;2023-12-04T13:31:49;13.00;99.90
6375;DHT22;35400;45.472;-122.822;2023-12-04T13:34:17;13.00;99.90
6375;DHT22;35400;45.472;-122.822;2023-12-04T13:36:43;13.00;99.90
6375;DHT22;35400;45.472;-122.822;2023-12-04T13:39:10;13.00;99.90
6375;DHT22;35400;45.472;-122.822;2023-12-04T13:41:45;13.10;99.90
6375;DHT22;35400;45.472;-122.822;2023-12-04T13:44:30;13.10;99.90
6375;DHT22;35400;45.472;-122.822;2023-12-04T13:46:57;13.10;99.90
6375;DHT22;35400;45.472;-122.822;2023-12-04T13:49:24;13.10;99.90
6375;DHT22;35400;45.472;-122.822;2023-12-04T13:51:51;13.10;99.90
6375;DHT22;35400;45.472;-122.822;2023-12-04T13:54:20;13.20;99.90
6375;DHT22;35400;45.472;-122.822;2023-12-04T13:56:48;13.20;99.90
6375;DHT22;35400;45.472;-122.822;2023-12-04T13:59:23;13.20;99.90
6375;DHT22;35400;45.472;-122.822;2023-12-04T14:01:50;13.20;99.90
6375;DHT22;35400;45.472;-122.822;2023-12-04T14:04:18;13.20;99.90
6375;DHT22;35400;45.472;-122.822;2023-12-04T14:06:45;13.20;99.90
6375;DHT22;35400;45.472;-122.822;2023-12-04T14:09:12;13.30;99.90
6375;DHT22;35400;45.472;-122.822;2023-12-04T14:11:43;13.20;99.90
6375;DHT22;35400;45.472;-122.822;2023-12-04T14:14:14;13.30;99.90
6375;DHT22;35400;45.472;-122.822;2023-12-04T14:16:41;13.30;99.90
6375;DHT22;35400;45.472;-122.822;2023-12-04T14:19:08;13.30;99.90
6375;DHT22;35400;45.472;-122.822;2023-12-04T14:21:35;13.40;99.90
6375;DHT22;35400;45.472;-122.822;2023-12-04T14:24:02;13.30;99.90
6375;DHT22;35400;45.472;-122.822;2023-12-04T14:26:29;13.30;99.90
6375;DHT22;35400;45.472;-122.822;2023-12-04T14:28:56;13.30;99.90
6375;DHT22;35400;45.472;-122.822;2023-12-04T14:31:24;13.30;99.90
6375;DHT22;35400;45.472;-122.822;2023-12-04T14:33:51;13.30;99.90
6375;DHT22;35400;45.472;-122.822;2023-12-04T14:36:19;13.30;99.90
6375;DHT22;35400;45.472;-122.822;2023-12-04T14:38:46;13.30;99.90
6375;DHT22;35400;45.472;-122.822;2023-12-04T14:41:13;13.30;99.90
6375;DHT22;35400;45.472;-122.822;2023-12-04T14:43:40;13.30;99.90
6375;DHT22;35400;45.472;-122.822;2023-12-04T14:46:09;13.30;99.90
6375;DHT22;35400;45.472;-122.822;2023-12-04T14:48:39;13.30;99.90
6375;DHT22;35400;45.472;-122.822;2023-12-04T14:51:07;13.30;99.90
6375;DHT22;35400;45.472;-122.822;2023-12-04T14:53:38;13.30;99.90
6375;DHT22;35400;45.472;-122.822;2023-12-04T14:56:27;13.30;99.90
6375;DHT22;35400;45.472;-122.822;2023-12-04T14:58:54;13.20;99.90
6375;DHT22;35400;45.472;-122.822;2023-12-04T15:01:33;13.30;99.90
6375;DHT22;35400;45.472;-122.822;2023-12-04T15:04:32;13.20;99.90
6375;DHT22;35400;45.472;-122.822;2023-12-04T15:07:17;13.30;99.90
6375;DHT22;35400;45.472;-122.822;2023-12-04T15:09:47;13.30;99.90